East Marion, NY

12:35 AM EDT on September 21, 2014 (GMT -0400)
Summit Estates | Change Station
CLOSE
Current Station
Personal Weather Station
Location: East Marion, NY
Elevation: 35 ft
Nearby Weather Stations

Elev 35 ft 41.12 °N, 72.35 °W | Updated 39 seconds ago

Overcast
Overcast
68.7 °F
Feels Like 68.7 °F
N
0.0
Wind Variable Wind from South
Gusts 1.6 mph

Today
High -- | Low -- °F
--% Chance of Precip.
Yesterday
High -- | Low -- °F
Precip. -- in
6:35 AM 6:48 PM
Waning Crescent, 9% visible
Pressure 30.09 in
Visibility 7.0 miles
Clouds Few 2400 ft
Mostly Cloudy 3300 ft
Overcast 4800 ft
Dew Point 61 °F
Humidity 77%
Rainfall 0.00 in
Snow Depth Not available.
UV 0 out of 12
Pollen 2.70 out of 12
Ozone Good
Flu Activity Not available.
METAR KSNC 210415Z AUTO 00000KT 7SM FEW024 BKN033 OVC048 17/16 A3009 RMK AO2

More Conditions Fewer Conditions

Pressure 30.09 in
Visibility 7.0 miles
Clouds Few 2400 ft
Mostly Cloudy 3300 ft
Overcast 4800 ft
Dew Point 61 °F
Humidity 77%
Rainfall 0.00 in
Snow Depth Not available.
UV 0 out of 12
Pollen 2.70 out of 12
Ozone Good
Flu Activity Not available.
METAR KSNC 210415Z AUTO 00000KT 7SM FEW024 BKN033 OVC048 17/16 A3009 RMK AO2

More Conditions Fewer Conditions

10-Day Weather Forecast

Almanac

Astronomy

Sep. 21, 2014 Rise Set
Actual Time 6:35 AM EDT 6:48 PM EDT
Civil Twilight 6:08 AM EDT 7:15 PM EDT
Nautical Twilight 5:36 AM EDT 7:47 PM EDT
Astronomical Twilight 5:03 AM EDT 8:20 PM EDT
Moon 4:05 AM EDT 5:23 PM EDT
Length of Visible Light 13h 07m
Length of Day
12h 12m
Tomorrow will be 2m 43s shorter.
Waning Crescent, 9% of the Moon is Illuminated
Today
Waning Crescent
Sep 24
New
Oct 1
First Quarter
Oct 8
Full
Oct 15
Last Quarter

Today's Extremes

State Highs State Lows

Community

WunderPhotos

Upload Photos

1,755,081 photos uploaded!

Nearby

Air Quality

  Air Quality AQ Index Pollutant
Yesterday Good
OZONE
Current Good
OZONE
Saturday Good
OZONE
Saturday Good
PM2.5
Sunday Good
OZONE
Sunday Good
PM2.5
Monday Good
OZONE
Monday Good
PM2.5

Snow Depth

Station Depth Elevation
No new snow has been reported.

Earthquake Activity

City Distance Mag. Time & Date
No recent earthquake activity has been reported nearby.
Minimum magnitude displayed is 2.5.

Coastal Water Temperatures

Place Temperature
New London, CT 66.9 °F

Nearby Weather Stations